sensor_id;sensor_type;location;lat;lon;timestamp;P1;durP1;ratioP1;P2;durP2;ratioP2
15130;SDS011;7666;50.920;4.628;2024-03-08T00:00:06;21.97;;;16.23;;
15130;SDS011;7666;50.920;4.628;2024-03-08T00:03:00;22.40;;;16.57;;
15130;SDS011;7666;50.920;4.628;2024-03-08T00:05:47;19.97;;;16.17;;
15130;SDS011;7666;50.920;4.628;2024-03-08T00:08:33;22.73;;;17.53;;
15130;SDS011;7666;50.920;4.628;2024-03-08T00:11:19;22.10;;;17.40;;
15130;SDS011;7666;50.920;4.628;2024-03-08T00:14:06;21.10;;;16.60;;
15130;SDS011;7666;50.920;4.628;2024-03-08T00:16:53;24.57;;;17.10;;
15130;SDS011;7666;50.920;4.628;2024-03-08T00:19:39;24.20;;;16.70;;
15130;SDS011;7666;50.920;4.628;2024-03-08T00:22:26;23.50;;;16.47;;
15130;SDS011;7666;50.920;4.628;2024-03-08T00:25:12;22.97;;;17.17;;
15130;SDS011;7666;50.920;4.628;2024-03-08T00:27:58;22.47;;;17.37;;
15130;SDS011;7666;50.920;4.628;2024-03-08T00:30:45;24.40;;;18.43;;
15130;SDS011;7666;50.920;4.628;2024-03-08T00:33:32;23.13;;;17.93;;
15130;SDS011;7666;50.920;4.628;2024-03-08T00:36:18;26.80;;;18.17;;
15130;SDS011;7666;50.920;4.628;2024-03-08T00:39:05;23.43;;;18.57;;
15130;SDS011;7666;50.920;4.628;2024-03-08T00:41:51;23.43;;;18.03;;
15130;SDS011;7666;50.920;4.628;2024-03-08T00:44:37;22.37;;;18.13;;
15130;SDS011;7666;50.920;4.628;2024-03-08T00:47:24;27.07;;;20.00;;
15130;SDS011;7666;50.920;4.628;2024-03-08T00:50:10;26.30;;;19.13;;
15130;SDS011;7666;50.920;4.628;2024-03-08T00:52:56;26.17;;;19.53;;
15130;SDS011;7666;50.920;4.628;2024-03-08T00:55:42;27.67;;;19.97;;
15130;SDS011;7666;50.920;4.628;2024-03-08T00:58:31;24.33;;;19.47;;
15130;SDS011;7666;50.920;4.628;2024-03-08T01:01:18;24.73;;;19.53;;
15130;SDS011;7666;50.920;4.628;2024-03-08T01:04:04;24.37;;;19.00;;
15130;SDS011;7666;50.920;4.628;2024-03-08T01:06:51;25.77;;;19.27;;
15130;SDS011;7666;50.920;4.628;2024-03-08T01:09:37;25.83;;;20.27;;
15130;SDS011;7666;50.920;4.628;2024-03-08T01:12:23;25.97;;;19.97;;
15130;SDS011;7666;50.920;4.628;2024-03-08T01:15:09;24.13;;;19.13;;
15130;SDS011;7666;50.920;4.628;2024-03-08T01:17:55;26.13;;;20.43;;
15130;SDS011;7666;50.920;4.628;2024-03-08T01:20:41;26.87;;;19.80;;
15130;SDS011;7666;50.920;4.628;2024-03-08T01:23:27;26.17;;;19.80;;
15130;SDS011;7666;50.920;4.628;2024-03-08T01:26:14;25.67;;;20.53;;
15130;SDS011;7666;50.920;4.628;2024-03-08T01:29:01;26.30;;;19.97;;
15130;SDS011;7666;50.920;4.628;2024-03-08T01:31:48;25.73;;;21.30;;
15130;SDS011;7666;50.920;4.628;2024-03-08T01:34:34;26.30;;;20.60;;
15130;SDS011;7666;50.920;4.628;2024-03-08T01:37:20;24.90;;;20.10;;
15130;SDS011;7666;50.920;4.628;2024-03-08T01:40:06;24.57;;;20.40;;
15130;SDS011;7666;50.920;4.628;2024-03-08T01:42:54;25.73;;;20.57;;
15130;SDS011;7666;50.920;4.628;2024-03-08T01:45:40;23.73;;;21.13;;
15130;SDS011;7666;50.920;4.628;2024-03-08T01:48:26;25.57;;;20.83;;
15130;SDS011;7666;50.920;4.628;2024-03-08T01:51:15;25.97;;;21.20;;
15130;SDS011;7666;50.920;4.628;2024-03-08T01:54:01;26.13;;;21.80;;
15130;SDS011;7666;50.920;4.628;2024-03-08T01:56:48;24.50;;;20.53;;
15130;SDS011;7666;50.920;4.628;2024-03-08T01:59:35;27.03;;;21.73;;
15130;SDS011;7666;50.920;4.628;2024-03-08T02:02:21;26.37;;;21.00;;
15130;SDS011;7666;50.920;4.628;2024-03-08T02:05:07;24.13;;;21.47;;
15130;SDS011;7666;50.920;4.628;2024-03-08T02:07:53;26.53;;;21.47;;
15130;SDS011;7666;50.920;4.628;2024-03-08T02:10:41;23.50;;;19.93;;
15130;SDS011;7666;50.920;4.628;2024-03-08T02:13:27;26.70;;;21.83;;
15130;SDS011;7666;50.920;4.628;2024-03-08T02:16:19;26.20;;;21.20;;
15130;SDS011;7666;50.920;4.628;2024-03-08T02:19:08;24.10;;;21.50;;
15130;SDS011;7666;50.920;4.628;2024-03-08T02:21:55;28.43;;;22.13;;
15130;SDS011;7666;50.920;4.628;2024-03-08T02:24:41;25.03;;;21.80;;
15130;SDS011;7666;50.920;4.628;2024-03-08T02:27:27;25.63;;;21.80;;
15130;SDS011;7666;50.920;4.628;2024-03-08T02:30:15;24.57;;;21.47;;
15130;SDS011;7666;50.920;4.628;2024-03-08T02:33:02;27.17;;;22.20;;
15130;SDS011;7666;50.920;4.628;2024-03-08T02:35:49;25.23;;;22.50;;
15130;SDS011;7666;50.920;4.628;2024-03-08T02:38:36;25.70;;;22.70;;
15130;SDS011;7666;50.920;4.628;2024-03-08T02:41:22;24.57;;;21.93;;
15130;SDS011;7666;50.920;4.628;2024-03-08T02:44:08;25.57;;;22.43;;
15130;SDS011;7666;50.920;4.628;2024-03-08T02:46:54;26.90;;;22.43;;
15130;SDS011;7666;50.920;4.628;2024-03-08T02:49:40;24.97;;;22.27;;
15130;SDS011;7666;50.920;4.628;2024-03-08T02:52:27;25.43;;;22.43;;
15130;SDS011;7666;50.920;4.628;2024-03-08T02:55:13;26.27;;;22.20;;
15130;SDS011;7666;50.920;4.628;2024-03-08T02:58:02;25.27;;;21.93;;
15130;SDS011;7666;50.920;4.628;2024-03-08T03:00:49;25.30;;;22.60;;
15130;SDS011;7666;50.920;4.628;2024-03-08T03:03:35;26.60;;;23.77;;
15130;SDS011;7666;50.920;4.628;2024-03-08T03:06:21;25.53;;;21.90;;
15130;SDS011;7666;50.920;4.628;2024-03-08T03:09:07;26.73;;;23.63;;
15130;SDS011;7666;50.920;4.628;2024-03-08T03:11:55;25.03;;;22.40;;
15130;SDS011;7666;50.920;4.628;2024-03-08T03:14:41;27.13;;;23.40;;
15130;SDS011;7666;50.920;4.628;2024-03-08T03:17:27;28.13;;;23.67;;
15130;SDS011;7666;50.920;4.628;2024-03-08T03:20:13;26.23;;;22.90;;
15130;SDS011;7666;50.920;4.628;2024-03-08T03:22:59;25.53;;;22.90;;
15130;SDS011;7666;50.920;4.628;2024-03-08T03:25:48;26.00;;;23.03;;
15130;SDS011;7666;50.920;4.628;2024-03-08T03:28:34;27.80;;;24.13;;
15130;SDS011;7666;50.920;4.628;2024-03-08T03:31:20;28.20;;;24.30;;
15130;SDS011;7666;50.920;4.628;2024-03-08T03:34:09;27.53;;;23.70;;
15130;SDS011;7666;50.920;4.628;2024-03-08T03:36:55;26.00;;;23.03;;
15130;SDS011;7666;50.920;4.628;2024-03-08T03:39:41;25.97;;;23.23;;
15130;SDS011;7666;50.920;4.628;2024-03-08T03:42:38;26.03;;;23.23;;
15130;SDS011;7666;50.920;4.628;2024-03-08T03:45:24;26.93;;;22.97;;
15130;SDS011;7666;50.920;4.628;2024-03-08T03:48:10;26.20;;;23.40;;
15130;SDS011;7666;50.920;4.628;2024-03-08T03:50:56;27.67;;;24.67;;
15130;SDS011;7666;50.920;4.628;2024-03-08T03:53:42;25.97;;;23.17;;
15130;SDS011;7666;50.920;4.628;2024-03-08T03:56:28;25.57;;;22.87;;
15130;SDS011;7666;50.920;4.628;2024-03-08T03:59:15;27.83;;;24.07;;
15130;SDS011;7666;50.920;4.628;2024-03-08T04:02:02;28.57;;;24.57;;
15130;SDS011;7666;50.920;4.628;2024-03-08T04:04:49;27.80;;;24.70;;
15130;SDS011;7666;50.920;4.628;2024-03-08T04:07:35;27.53;;;24.17;;
15130;SDS011;7666;50.920;4.628;2024-03-08T04:10:21;26.13;;;23.40;;
15130;SDS011;7666;50.920;4.628;2024-03-08T04:13:07;27.77;;;23.23;;
15130;SDS011;7666;50.920;4.628;2024-03-08T04:15:54;27.43;;;24.20;;
15130;SDS011;7666;50.920;4.628;2024-03-08T04:18:40;27.03;;;24.17;;
15130;SDS011;7666;50.920;4.628;2024-03-08T04:21:26;27.60;;;23.63;;
15130;SDS011;7666;50.920;4.628;2024-03-08T04:24:15;28.03;;;23.93;;
15130;SDS011;7666;50.920;4.628;2024-03-08T04:27:02;26.27;;;23.37;;
15130;SDS011;7666;50.920;4.628;2024-03-08T04:29:49;27.57;;;23.40;;
15130;SDS011;7666;50.920;4.628;2024-03-08T04:32:35;27.47;;;24.03;;
15130;SDS011;7666;50.920;4.628;2024-03-08T04:35:21;28.07;;;24.93;;
15130;SDS011;7666;50.920;4.628;2024-03-08T04:38:07;27.20;;;24.17;;
15130;SDS011;7666;50.920;4.628;2024-03-08T04:40:53;27.93;;;24.20;;
15130;SDS011;7666;50.920;4.628;2024-03-08T04:43:39;26.57;;;23.80;;
15130;SDS011;7666;50.920;4.628;2024-03-08T04:46:25;27.43;;;24.20;;
15130;SDS011;7666;50.920;4.628;2024-03-08T04:49:13;27.03;;;23.67;;
15130;SDS011;7666;50.920;4.628;2024-03-08T04:51:59;28.50;;;24.23;;
15130;SDS011;7666;50.920;4.628;2024-03-08T04:54:45;27.30;;;23.53;;
15130;SDS011;7666;50.920;4.628;2024-03-08T04:57:31;27.13;;;23.67;;
15130;SDS011;7666;50.920;4.628;2024-03-08T05:00:17;27.97;;;24.57;;
15130;SDS011;7666;50.920;4.628;2024-03-08T05:03:03;27.63;;;24.20;;
15130;SDS011;7666;50.920;4.628;2024-03-08T05:05:50;28.13;;;24.57;;
15130;SDS011;7666;50.920;4.628;2024-03-08T05:08:36;28.07;;;24.23;;
15130;SDS011;7666;50.920;4.628;2024-03-08T05:11:22;30.60;;;25.27;;
15130;SDS011;7666;50.920;4.628;2024-03-08T05:14:08;28.03;;;25.03;;
15130;SDS011;7666;50.920;4.628;2024-03-08T05:16:54;27.57;;;24.63;;
15130;SDS011;7666;50.920;4.628;2024-03-08T05:19:40;28.00;;;24.77;;
15130;SDS011;7666;50.920;4.628;2024-03-08T05:22:26;27.57;;;23.83;;
15130;SDS011;7666;50.920;4.628;2024-03-08T05:25:13;28.43;;;24.83;;
15130;SDS011;7666;50.920;4.628;2024-03-08T05:27:59;28.77;;;24.50;;
15130;SDS011;7666;50.920;4.628;2024-03-08T05:30:45;27.10;;;23.80;;
15130;SDS011;7666;50.920;4.628;2024-03-08T05:33:31;30.60;;;25.60;;
15130;SDS011;7666;50.920;4.628;2024-03-08T05:36:19;30.07;;;24.77;;
15130;SDS011;7666;50.920;4.628;2024-03-08T05:39:05;28.97;;;24.60;;
15130;SDS011;7666;50.920;4.628;2024-03-08T05:41:52;30.13;;;25.40;;
15130;SDS011;7666;50.920;4.628;2024-03-08T05:44:40;27.97;;;24.27;;
15130;SDS011;7666;50.920;4.628;2024-03-08T05:47:26;30.23;;;25.43;;
15130;SDS011;7666;50.920;4.628;2024-03-08T05:50:12;27.30;;;24.30;;
15130;SDS011;7666;50.920;4.628;2024-03-08T05:53:00;26.77;;;23.83;;
15130;SDS011;7666;50.920;4.628;2024-03-08T05:55:46;32.40;;;25.60;;
15130;SDS011;7666;50.920;4.628;2024-03-08T05:58:32;27.47;;;24.37;;
15130;SDS011;7666;50.920;4.628;2024-03-08T06:01:18;28.77;;;24.77;;
15130;SDS011;7666;50.920;4.628;2024-03-08T06:04:04;28.23;;;24.10;;
15130;SDS011;7666;50.920;4.628;2024-03-08T06:06:50;27.83;;;24.27;;
15130;SDS011;7666;50.920;4.628;2024-03-08T06:09:37;29.83;;;24.67;;
15130;SDS011;7666;50.920;4.628;2024-03-08T06:12:23;31.03;;;25.43;;
15130;SDS011;7666;50.920;4.628;2024-03-08T06:15:14;28.30;;;24.50;;
15130;SDS011;7666;50.920;4.628;2024-03-08T06:18:00;30.47;;;24.67;;
15130;SDS011;7666;50.920;4.628;2024-03-08T06:20:46;29.90;;;24.73;;
15130;SDS011;7666;50.920;4.628;2024-03-08T06:23:33;29.17;;;25.37;;
15130;SDS011;7666;50.920;4.628;2024-03-08T06:26:19;28.93;;;24.17;;
15130;SDS011;7666;50.920;4.628;2024-03-08T06:29:05;28.67;;;23.83;;
15130;SDS011;7666;50.920;4.628;2024-03-08T06:31:52;29.23;;;23.10;;
15130;SDS011;7666;50.920;4.628;2024-03-08T06:34:38;29.20;;;24.87;;
15130;SDS011;7666;50.920;4.628;2024-03-08T06:37:24;29.03;;;24.20;;
15130;SDS011;7666;50.920;4.628;2024-03-08T06:40:11;28.87;;;22.40;;
15130;SDS011;7666;50.920;4.628;2024-03-08T06:42:59;26.50;;;22.43;;
15130;SDS011;7666;50.920;4.628;2024-03-08T06:45:45;26.33;;;22.60;;
15130;SDS011;7666;50.920;4.628;2024-03-08T06:48:33;26.97;;;22.27;;
15130;SDS011;7666;50.920;4.628;2024-03-08T06:51:20;26.93;;;22.77;;
15130;SDS011;7666;50.920;4.628;2024-03-08T06:54:06;25.13;;;21.70;;
15130;SDS011;7666;50.920;4.628;2024-03-08T06:56:54;29.83;;;21.80;;
15130;SDS011;7666;50.920;4.628;2024-03-08T06:59:40;26.83;;;21.50;;
15130;SDS011;7666;50.920;4.628;2024-03-08T07:02:26;25.23;;;21.53;;
15130;SDS011;7666;50.920;4.628;2024-03-08T07:05:12;23.83;;;20.57;;
15130;SDS011;7666;50.920;4.628;2024-03-08T07:07:58;23.43;;;20.43;;
15130;SDS011;7666;50.920;4.628;2024-03-08T07:10:44;24.43;;;21.30;;
15130;SDS011;7666;50.920;4.628;2024-03-08T07:13:30;23.80;;;20.03;;
15130;SDS011;7666;50.920;4.628;2024-03-08T07:16:17;26.60;;;20.60;;
15130;SDS011;7666;50.920;4.628;2024-03-08T07:19:03;23.70;;;19.73;;
15130;SDS011;7666;50.920;4.628;2024-03-08T07:21:50;22.83;;;20.27;;
15130;SDS011;7666;50.920;4.628;2024-03-08T07:24:36;28.83;;;21.37;;
15130;SDS011;7666;50.920;4.628;2024-03-08T07:27:22;22.60;;;20.10;;
15130;SDS011;7666;50.920;4.628;2024-03-08T07:30:08;25.47;;;19.70;;
15130;SDS011;7666;50.920;4.628;2024-03-08T07:32:55;25.50;;;20.60;;
15130;SDS011;7666;50.920;4.628;2024-03-08T07:35:41;23.30;;;20.27;;
15130;SDS011;7666;50.920;4.628;2024-03-08T07:38:29;24.83;;;20.17;;
15130;SDS011;7666;50.920;4.628;2024-03-08T07:41:15;25.47;;;20.63;;
15130;SDS011;7666;50.920;4.628;2024-03-08T07:44:01;25.53;;;20.57;;
15130;SDS011;7666;50.920;4.628;2024-03-08T07:46:49;25.47;;;19.97;;
15130;SDS011;7666;50.920;4.628;2024-03-08T07:49:35;24.97;;;19.67;;
15130;SDS011;7666;50.920;4.628;2024-03-08T07:52:24;24.83;;;20.60;;
15130;SDS011;7666;50.920;4.628;2024-03-08T07:55:10;24.63;;;20.40;;
15130;SDS011;7666;50.920;4.628;2024-03-08T07:57:56;23.10;;;20.53;;
15130;SDS011;7666;50.920;4.628;2024-03-08T08:00:42;23.53;;;19.73;;
15130;SDS011;7666;50.920;4.628;2024-03-08T08:03:28;22.80;;;19.73;;
15130;SDS011;7666;50.920;4.628;2024-03-08T08:06:14;23.20;;;20.10;;
15130;SDS011;7666;50.920;4.628;2024-03-08T08:09:01;24.47;;;20.20;;
15130;SDS011;7666;50.920;4.628;2024-03-08T08:11:47;23.83;;;21.27;;
15130;SDS011;7666;50.920;4.628;2024-03-08T08:14:33;24.97;;;20.73;;
15130;SDS011;7666;50.920;4.628;2024-03-08T08:17:19;23.60;;;19.80;;
15130;SDS011;7666;50.920;4.628;2024-03-08T08:20:05;24.07;;;19.73;;
15130;SDS011;7666;50.920;4.628;2024-03-08T08:22:51;22.70;;;19.73;;
15130;SDS011;7666;50.920;4.628;2024-03-08T08:25:39;23.43;;;20.10;;
15130;SDS011;7666;50.920;4.628;2024-03-08T08:28:25;24.67;;;18.93;;
15130;SDS011;7666;50.920;4.628;2024-03-08T08:31:11;25.63;;;20.67;;
15130;SDS011;7666;50.920;4.628;2024-03-08T08:33:58;23.30;;;19.20;;
15130;SDS011;7666;50.920;4.628;2024-03-08T08:36:45;22.40;;;19.47;;
15130;SDS011;7666;50.920;4.628;2024-03-08T08:39:31;21.80;;;19.40;;
15130;SDS011;7666;50.920;4.628;2024-03-08T08:42:18;25.07;;;19.20;;
15130;SDS011;7666;50.920;4.628;2024-03-08T08:45:05;22.80;;;18.70;;
15130;SDS011;7666;50.920;4.628;2024-03-08T08:47:53;23.63;;;19.40;;
15130;SDS011;7666;50.920;4.628;2024-03-08T08:50:39;20.73;;;18.27;;
15130;SDS011;7666;50.920;4.628;2024-03-08T08:53:26;21.00;;;18.13;;
15130;SDS011;7666;50.920;4.628;2024-03-08T08:56:13;20.93;;;18.57;;
15130;SDS011;7666;50.920;4.628;2024-03-08T08:58:59;23.63;;;18.50;;
15130;SDS011;7666;50.920;4.628;2024-03-08T09:01:45;23.07;;;18.47;;
15130;SDS011;7666;50.920;4.628;2024-03-08T09:04:35;21.40;;;17.30;;
15130;SDS011;7666;50.920;4.628;2024-03-08T09:07:21;20.37;;;17.27;;
15130;SDS011;7666;50.920;4.628;2024-03-08T09:10:07;21.10;;;17.43;;
15130;SDS011;7666;50.920;4.628;2024-03-08T09:12:55;20.97;;;18.10;;
15130;SDS011;7666;50.920;4.628;2024-03-08T09:15:41;19.83;;;17.53;;
15130;SDS011;7666;50.920;4.628;2024-03-08T09:18:27;19.47;;;16.97;;
15130;SDS011;7666;50.920;4.628;2024-03-08T09:21:13;21.33;;;17.43;;
15130;SDS011;7666;50.920;4.628;2024-03-08T09:23:59;18.83;;;16.57;;
15130;SDS011;7666;50.920;4.628;2024-03-08T09:26:45;18.23;;;16.03;;
15130;SDS011;7666;50.920;4.628;2024-03-08T09:29:31;18.83;;;16.20;;
15130;SDS011;7666;50.920;4.628;2024-03-08T09:32:17;19.30;;;16.73;;
15130;SDS011;7666;50.920;4.628;2024-03-08T09:35:04;19.60;;;16.70;;
15130;SDS011;7666;50.920;4.628;2024-03-08T09:37:53;19.80;;;16.73;;
15130;SDS011;7666;50.920;4.628;2024-03-08T09:40:42;19.30;;;17.03;;
15130;SDS011;7666;50.920;4.628;2024-03-08T09:43:28;18.63;;;15.67;;
15130;SDS011;7666;50.920;4.628;2024-03-08T09:46:15;18.80;;;15.70;;
15130;SDS011;7666;50.920;4.628;2024-03-08T09:49:04;17.40;;;14.80;;
15130;SDS011;7666;50.920;4.628;2024-03-08T09:51:51;18.57;;;15.17;;
15130;SDS011;7666;50.920;4.628;2024-03-08T09:54:37;19.10;;;15.87;;
15130;SDS011;7666;50.920;4.628;2024-03-08T09:57:23;18.43;;;15.10;;
15130;SDS011;7666;50.920;4.628;2024-03-08T10:00:10;18.53;;;15.43;;
15130;SDS011;7666;50.920;4.628;2024-03-08T10:03:08;17.00;;;15.07;;
15130;SDS011;7666;50.920;4.628;2024-03-08T10:05:56;16.23;;;14.50;;
15130;SDS011;7666;50.920;4.628;2024-03-08T10:08:45;15.63;;;13.67;;
15130;SDS011;7666;50.920;4.628;2024-03-08T10:11:31;17.70;;;14.67;;
15130;SDS011;7666;50.920;4.628;2024-03-08T10:14:18;16.77;;;14.30;;
15130;SDS011;7666;50.920;4.628;2024-03-08T10:17:04;16.57;;;14.77;;
15130;SDS011;7666;50.920;4.628;2024-03-08T10:19:51;18.23;;;15.30;;
15130;SDS011;7666;50.920;4.628;2024-03-08T10:22:38;15.83;;;14.13;;
15130;SDS011;7666;50.920;4.628;2024-03-08T10:25:24;19.13;;;14.97;;
15130;SDS011;7666;50.920;4.628;2024-03-08T10:28:10;17.50;;;14.60;;
15130;SDS011;7666;50.920;4.628;2024-03-08T10:30:58;15.87;;;14.07;;
15130;SDS011;7666;50.920;4.628;2024-03-08T10:33:44;16.50;;;13.67;;
15130;SDS011;7666;50.920;4.628;2024-03-08T10:36:30;17.43;;;14.87;;
15130;SDS011;7666;50.920;4.628;2024-03-08T10:39:22;15.33;;;13.73;;
15130;SDS011;7666;50.920;4.628;2024-03-08T10:42:09;16.37;;;14.30;;
15130;SDS011;7666;50.920;4.628;2024-03-08T10:45:10;16.23;;;13.13;;
15130;SDS011;7666;50.920;4.628;2024-03-08T10:51:02;16.33;;;13.93;;
15130;SDS011;7666;50.920;4.628;2024-03-08T10:53:48;16.67;;;13.80;;
15130;SDS011;7666;50.920;4.628;2024-03-08T10:56:36;16.83;;;13.73;;
15130;SDS011;7666;50.920;4.628;2024-03-08T10:59:23;19.37;;;14.63;;
15130;SDS011;7666;50.920;4.628;2024-03-08T11:02:12;18.13;;;14.23;;
15130;SDS011;7666;50.920;4.628;2024-03-08T11:04:58;18.00;;;14.30;;
15130;SDS011;7666;50.920;4.628;2024-03-08T11:07:44;16.73;;;13.87;;
15130;SDS011;7666;50.920;4.628;2024-03-08T11:10:30;16.23;;;14.23;;
15130;SDS011;7666;50.920;4.628;2024-03-08T11:22:03;14.93;;;13.30;;
15130;SDS011;7666;50.920;4.628;2024-03-08T11:24:49;15.83;;;13.10;;
15130;SDS011;7666;50.920;4.628;2024-03-08T11:27:35;15.17;;;12.83;;
15130;SDS011;7666;50.920;4.628;2024-03-08T11:30:22;17.30;;;14.00;;
15130;SDS011;7666;50.920;4.628;2024-03-08T11:33:12;16.23;;;13.43;;
15130;SDS011;7666;50.920;4.628;2024-03-08T11:36:02;17.50;;;14.23;;
15130;SDS011;7666;50.920;4.628;2024-03-08T11:39:08;15.17;;;13.57;;
15130;SDS011;7666;50.920;4.628;2024-03-08T11:42:00;15.60;;;13.93;;
15130;SDS011;7666;50.920;4.628;2024-03-08T11:44:46;16.83;;;13.93;;
15130;SDS011;7666;50.920;4.628;2024-03-08T11:47:33;16.10;;;13.47;;
15130;SDS011;7666;50.920;4.628;2024-03-08T11:50:20;14.20;;;12.70;;
15130;SDS011;7666;50.920;4.628;2024-03-08T11:53:09;14.67;;;12.73;;
15130;SDS011;7666;50.920;4.628;2024-03-08T11:56:05;17.37;;;14.27;;
15130;SDS011;7666;50.920;4.628;2024-03-08T11:58:56;15.13;;;13.40;;
15130;SDS011;7666;50.920;4.628;2024-03-08T12:01:42;14.73;;;12.87;;
15130;SDS011;7666;50.920;4.628;2024-03-08T12:04:29;15.03;;;13.27;;
15130;SDS011;7666;50.920;4.628;2024-03-08T12:07:16;14.77;;;13.00;;
15130;SDS011;7666;50.920;4.628;2024-03-08T12:10:14;15.20;;;13.33;;
15130;SDS011;7666;50.920;4.628;2024-03-08T12:13:02;16.20;;;13.63;;
15130;SDS011;7666;50.920;4.628;2024-03-08T12:15:51;18.77;;;12.73;;
15130;SDS011;7666;50.920;4.628;2024-03-08T12:18:37;17.43;;;14.07;;
15130;SDS011;7666;50.920;4.628;2024-03-08T12:21:25;16.73;;;13.33;;
15130;SDS011;7666;50.920;4.628;2024-03-08T12:24:15;16.33;;;12.83;;
15130;SDS011;7666;50.920;4.628;2024-03-08T12:27:17;16.30;;;13.33;;
15130;SDS011;7666;50.920;4.628;2024-03-08T12:30:17;14.17;;;12.60;;
15130;SDS011;7666;50.920;4.628;2024-03-08T12:33:06;14.67;;;12.33;;
15130;SDS011;7666;50.920;4.628;2024-03-08T12:35:56;14.97;;;12.63;;
15130;SDS011;7666;50.920;4.628;2024-03-08T12:38:46;15.03;;;13.03;;
15130;SDS011;7666;50.920;4.628;2024-03-08T12:41:38;15.33;;;13.30;;
15130;SDS011;7666;50.920;4.628;2024-03-08T12:44:25;13.83;;;12.23;;
15130;SDS011;7666;50.920;4.628;2024-03-08T12:47:13;16.27;;;13.33;;
15130;SDS011;7666;50.920;4.628;2024-03-08T12:49:59;15.23;;;12.63;;
15130;SDS011;7666;50.920;4.628;2024-03-08T12:52:45;18.10;;;13.00;;
15130;SDS011;7666;50.920;4.628;2024-03-08T12:55:31;15.50;;;12.53;;
15130;SDS011;7666;50.920;4.628;2024-03-08T12:58:18;15.73;;;13.50;;
15130;SDS011;7666;50.920;4.628;2024-03-08T13:01:05;16.37;;;13.47;;
15130;SDS011;7666;50.920;4.628;2024-03-08T13:03:54;14.90;;;12.17;;
15130;SDS011;7666;50.920;4.628;2024-03-08T13:06:51;15.80;;;13.00;;
15130;SDS011;7666;50.920;4.628;2024-03-08T13:09:37;15.97;;;12.57;;
15130;SDS011;7666;50.920;4.628;2024-03-08T13:12:23;15.50;;;12.70;;
15130;SDS011;7666;50.920;4.628;2024-03-08T13:15:09;13.70;;;12.00;;
15130;SDS011;7666;50.920;4.628;2024-03-08T13:18:00;15.43;;;12.67;;
15130;SDS011;7666;50.920;4.628;2024-03-08T13:20:46;14.87;;;11.90;;
15130;SDS011;7666;50.920;4.628;2024-03-08T13:23:37;15.27;;;12.63;;
15130;SDS011;7666;50.920;4.628;2024-03-08T13:26:26;14.30;;;12.73;;
15130;SDS011;7666;50.920;4.628;2024-03-08T13:29:18;14.80;;;11.77;;
15130;SDS011;7666;50.920;4.628;2024-03-08T13:32:03;16.00;;;12.80;;
15130;SDS011;7666;50.920;4.628;2024-03-08T13:34:51;16.13;;;12.80;;
15130;SDS011;7666;50.920;4.628;2024-03-08T13:37:42;18.80;;;13.57;;
15130;SDS011;7666;50.920;4.628;2024-03-08T13:40:28;14.17;;;12.50;;
15130;SDS011;7666;50.920;4.628;2024-03-08T13:43:14;17.53;;;12.70;;
15130;SDS011;7666;50.920;4.628;2024-03-08T13:46:00;16.27;;;12.40;;
15130;SDS011;7666;50.920;4.628;2024-03-08T13:48:46;14.30;;;12.00;;
15130;SDS011;7666;50.920;4.628;2024-03-08T13:51:33;13.77;;;12.17;;
15130;SDS011;7666;50.920;4.628;2024-03-08T13:54:19;15.00;;;12.87;;
15130;SDS011;7666;50.920;4.628;2024-03-08T13:57:09;14.03;;;12.43;;
15130;SDS011;7666;50.920;4.628;2024-03-08T13:59:56;14.07;;;12.20;;
15130;SDS011;7666;50.920;4.628;2024-03-08T14:02:42;14.30;;;12.47;;
15130;SDS011;7666;50.920;4.628;2024-03-08T14:05:28;16.47;;;12.27;;
15130;SDS011;7666;50.920;4.628;2024-03-08T14:08:16;14.60;;;12.40;;
15130;SDS011;7666;50.920;4.628;2024-03-08T14:11:03;14.63;;;12.33;;
15130;SDS011;7666;50.920;4.628;2024-03-08T14:13:56;14.83;;;12.03;;
15130;SDS011;7666;50.920;4.628;2024-03-08T14:16:42;15.57;;;12.27;;
15130;SDS011;7666;50.920;4.628;2024-03-08T14:19:28;14.40;;;12.90;;
15130;SDS011;7666;50.920;4.628;2024-03-08T14:22:16;13.93;;;12.10;;
15130;SDS011;7666;50.920;4.628;2024-03-08T14:25:02;14.97;;;12.57;;
15130;SDS011;7666;50.920;4.628;2024-03-08T14:27:48;14.10;;;11.70;;
15130;SDS011;7666;50.920;4.628;2024-03-08T14:30:43;18.20;;;11.47;;
15130;SDS011;7666;50.920;4.628;2024-03-08T14:33:29;13.57;;;12.17;;
15130;SDS011;7666;50.920;4.628;2024-03-08T14:36:15;15.27;;;11.60;;
15130;SDS011;7666;50.920;4.628;2024-03-08T14:39:05;13.20;;;11.80;;
15130;SDS011;7666;50.920;4.628;2024-03-08T14:41:52;15.40;;;12.37;;
15130;SDS011;7666;50.920;4.628;2024-03-08T14:44:43;13.30;;;11.67;;
15130;SDS011;7666;50.920;4.628;2024-03-08T14:47:33;13.87;;;12.03;;
15130;SDS011;7666;50.920;4.628;2024-03-08T14:50:20;14.97;;;12.27;;
15130;SDS011;7666;50.920;4.628;2024-03-08T14:53:09;14.63;;;12.00;;
15130;SDS011;7666;50.920;4.628;2024-03-08T14:55:55;14.00;;;12.00;;
15130;SDS011;7666;50.920;4.628;2024-03-08T14:58:42;13.17;;;11.67;;
15130;SDS011;7666;50.920;4.628;2024-03-08T15:01:29;15.17;;;12.07;;
15130;SDS011;7666;50.920;4.628;2024-03-08T15:04:18;13.47;;;11.57;;
15130;SDS011;7666;50.920;4.628;2024-03-08T15:07:05;15.40;;;11.43;;
15130;SDS011;7666;50.920;4.628;2024-03-08T15:09:51;14.07;;;12.20;;
15130;SDS011;7666;50.920;4.628;2024-03-08T15:12:37;14.93;;;11.80;;
15130;SDS011;7666;50.920;4.628;2024-03-08T15:15:25;14.63;;;11.60;;
15130;SDS011;7666;50.920;4.628;2024-03-08T15:18:11;17.43;;;11.70;;
15130;SDS011;7666;50.920;4.628;2024-03-08T15:20:57;14.87;;;12.07;;
15130;SDS011;7666;50.920;4.628;2024-03-08T15:23:43;14.63;;;11.90;;
15130;SDS011;7666;50.920;4.628;2024-03-08T15:26:34;16.03;;;12.37;;
15130;SDS011;7666;50.920;4.628;2024-03-08T15:29:21;13.50;;;11.97;;
15130;SDS011;7666;50.920;4.628;2024-03-08T15:32:11;13.17;;;11.77;;
15130;SDS011;7666;50.920;4.628;2024-03-08T15:35:03;17.70;;;11.73;;
15130;SDS011;7666;50.920;4.628;2024-03-08T15:37:50;14.00;;;11.90;;
15130;SDS011;7666;50.920;4.628;2024-03-08T15:40:37;14.70;;;11.93;;
15130;SDS011;7666;50.920;4.628;2024-03-08T15:43:24;12.77;;;10.77;;
15130;SDS011;7666;50.920;4.628;2024-03-08T15:46:10;12.57;;;11.27;;
15130;SDS011;7666;50.920;4.628;2024-03-08T15:48:57;14.70;;;11.50;;
15130;SDS011;7666;50.920;4.628;2024-03-08T15:51:43;14.40;;;11.93;;
15130;SDS011;7666;50.920;4.628;2024-03-08T15:54:30;16.13;;;11.97;;
15130;SDS011;7666;50.920;4.628;2024-03-08T15:57:16;13.03;;;11.63;;
15130;SDS011;7666;50.920;4.628;2024-03-08T16:00:06;13.90;;;11.23;;
15130;SDS011;7666;50.920;4.628;2024-03-08T16:03:02;13.23;;;10.83;;
15130;SDS011;7666;50.920;4.628;2024-03-08T16:05:52;14.60;;;11.33;;
15130;SDS011;7666;50.920;4.628;2024-03-08T16:08:39;12.10;;;9.77;;
15130;SDS011;7666;50.920;4.628;2024-03-08T16:11:25;14.33;;;11.73;;
15130;SDS011;7666;50.920;4.628;2024-03-08T16:14:11;14.10;;;11.47;;
15130;SDS011;7666;50.920;4.628;2024-03-08T16:16:57;13.73;;;11.20;;
15130;SDS011;7666;50.920;4.628;2024-03-08T16:19:43;15.20;;;11.13;;
15130;SDS011;7666;50.920;4.628;2024-03-08T16:22:29;12.73;;;10.67;;
15130;SDS011;7666;50.920;4.628;2024-03-08T16:25:16;13.77;;;10.87;;
15130;SDS011;7666;50.920;4.628;2024-03-08T16:28:04;14.40;;;11.67;;
15130;SDS011;7666;50.920;4.628;2024-03-08T16:30:53;13.50;;;11.13;;
15130;SDS011;7666;50.920;4.628;2024-03-08T16:33:40;15.23;;;11.53;;
15130;SDS011;7666;50.920;4.628;2024-03-08T16:36:26;12.50;;;10.70;;
15130;SDS011;7666;50.920;4.628;2024-03-08T16:39:13;14.53;;;10.87;;
15130;SDS011;7666;50.920;4.628;2024-03-08T16:41:59;17.87;;;11.80;;